Terminal Aerodrome Forecast
Issued by NWS Quad Cities IA IL

Home | Current Version | Previous Version | Text Only | Print | Product List | Glossary On
Versions: 1 2 3 4 5 6 7 8 9 10 11 12 13 14 15 16 17 18 19 20 21 22
000
FTUS43 KDVN 162024 AAB
TAFDBQ
TAF AMD
KDBQ 162024Z 1620/1718 15012G18KT P6SM VCTS SCT024CB BKN060
     FM162130 16009KT P6SM VCTS BKN025CB BKN060
      TEMPO 1623/1702 2SM TSRA BR BKN018CB
     FM170400 18008KT 6SM -RA BR VCTS OVC018CB
     FM171100 22012KT 5SM BR OVC012
     FM171400 25016G21KT 6SM BR OVC011=

USA.gov is the U.S. government's official web portal to all federal, state and local government web resources and services.